Time;durP1;ratioP1;P1;durP2;ratioP2;P2;SDS_P1;SDS_P2;PMS_P1;PMS_P2;Temp;Humidity;BMP_temperature;BMP_pressure;BME280_temperature;BME280_humidity;BME280_pressure;Samples;Min_cycle;Max_cycle;Signal;HPM_P1;HPM_P2
2021/04/10 00:02:23;;;;;;;0.10;0.10;;;;;;;-3.73;89.41;101798.41;1717061;82;21454;-46
2021/04/10 00:04:50;;;;;;;0.30;0.30;;;;;;;-3.74;89.42;101806.06;1722088;82;21141;-47
2021/04/10 00:07:18;;;;;;;0.10;0.10;;;;;;;-3.76;89.47;101802.69;1703327;82;21125;-47
2021/04/10 00:09:45;;;;;;;0.40;0.40;;;;;;;-3.77;89.52;101806.37;1709668;82;21154;-47
2021/04/10 00:12:14;;;;;;;0.40;0.40;;;;;;;-3.78;89.54;101806.04;1730312;81;21619;-47
2021/04/10 00:14:43;;;;;;;0.42;0.20;;;;;;;-3.80;89.57;101800.00;1726505;83;21177;-47
2021/04/10 00:17:10;;;;;;;1.45;1.30;;;;;;;-3.82;89.66;101800.64;1694223;83;21181;-46
2021/04/10 00:19:39;;;;;;;0.10;0.10;;;;;;;-3.85;89.72;101794.28;1698803;83;21145;-47
2021/04/10 00:22:06;;;;;;;0.20;0.20;;;;;;;-3.90;89.75;101794.23;1710500;83;21672;-46
2021/04/10 00:24:33;;;;;;;0.10;0.10;;;;;;;-3.91;89.83;101797.03;1726825;83;21174;-46
2021/04/10 00:27:01;;;;;;;0.20;0.20;;;;;;;-3.93;89.89;101803.05;1718493;83;21185;-47
2021/04/10 00:29:29;;;;;;;1.65;0.47;;;;;;;-3.97;89.92;101803.83;1726860;82;21137;-47
2021/04/10 00:31:57;;;;;;;0.10;0.10;;;;;;;-4.00;89.97;101799.30;1727134;83;21449;-47
2021/04/10 00:34:26;;;;;;;0.10;0.10;;;;;;;-4.04;90.01;101792.07;1720509;83;21107;-46
2021/04/10 00:36:54;;;;;;;0.72;0.72;;;;;;;-4.08;90.13;101790.68;1697768;84;21138;-46
2021/04/10 00:39:21;;;;;;;0.08;0.08;;;;;;;-4.10;90.23;101796.69;1725933;83;21129;-46
2021/04/10 00:41:49;;;;;;;0.15;0.15;;;;;;;-4.13;90.31;101795.63;1726905;82;21122;-46
2021/04/10 00:44:19;;;;;;;1.00;1.00;;;;;;;-4.14;90.38;101800.64;1724684;83;21572;-46
2021/04/10 00:46:48;;;;;;;0.23;0.23;;;;;;;-4.16;90.45;101798.61;1726839;83;21540;-46
2021/04/10 00:49:17;;;;;;;0.30;0.30;;;;;;;-4.18;90.49;101796.58;1698831;82;21166;-46
2021/04/10 00:51:45;;;;;;;0.20;0.20;;;;;;;-4.19;90.58;101794.91;1699549;83;21470;-46
2021/04/10 00:54:12;;;;;;;0.10;0.10;;;;;;;-4.22;90.68;101797.89;1697951;83;21166;-47
2021/04/10 00:56:40;;;;;;;0.35;0.35;;;;;;;-4.24;90.73;101798.53;1697815;84;21134;-45
2021/04/10 00:59:07;;;;;;;0.70;0.37;;;;;;;-4.28;90.77;101805.97;1710006;83;21172;-45
2021/04/10 01:01:35;;;;;;;1.85;1.35;;;;;;;-4.30;90.81;101806.64;1699020;83;21139;-44
2021/04/10 01:04:03;;;;;;;0.10;0.10;;;;;;;-4.33;90.88;101804.25;1671639;84;21114;-45
2021/04/10 01:06:31;;;;;;;0.10;0.10;;;;;;;-4.36;90.96;101808.05;1697931;83;21174;-45
2021/04/10 01:09:00;;;;;;;0.10;0.10;;;;;;;-4.38;91.04;101807.86;1724545;83;21152;-44
2021/04/10 01:11:59;;;;;;;4.80;0.72;;;;;;;-4.41;91.09;101806.33;1726716;83;21169;-45
2021/04/10 01:15:03;;;;;;;0.10;0.10;;;;;;;-4.44;91.15;101807.13;1732051;82;21122;-44
2021/04/10 01:17:34;;;;;;;0.20;0.20;;;;;;;-4.48;91.20;101811.08;1703241;82;21157;-44
2021/04/10 01:20:32;;;;;;;0.10;0.10;;;;;;;-4.52;91.28;101814.54;1703310;82;21153;-45
2021/04/10 01:23:22;;;;;;;0.30;0.30;;;;;;;-4.55;91.38;101814.34;1700373;82;21150;-45
2021/04/10 01:26:01;;;;;;;0.10;0.10;;;;;;;-4.57;91.53;101812.31;1732576;82;21457;-45
2021/04/10 01:28:58;;;;;;;0.10;0.10;;;;;;;-4.59;91.73;101807.61;1715895;82;21142;-45
2021/04/10 01:31:39;;;;;;;0.23;0.23;;;;;;;-4.58;91.97;101811.95;1709350;82;21129;-45
2021/04/10 01:34:15;;;;;;;0.20;0.20;;;;;;;-4.56;92.07;101809.98;1700675;82;21422;-44
2021/04/10 01:36:44;;;;;;;0.10;0.10;;;;;;;-4.56;92.07;101809.14;1730589;82;21154;-44
2021/04/10 01:39:13;;;;;;;0.10;0.10;;;;;;;-4.56;92.17;101806.47;1705685;82;21205;-44
2021/04/10 01:41:47;;;;;;;0.10;0.10;;;;;;;-4.56;92.27;101805.14;1684356;82;21162;-45
2021/04/10 01:44:17;;;;;;;0.10;0.10;;;;;;;-4.53;92.41;101810.17;1703323;84;21186;-45
2021/04/10 01:46:47;;;;;;;0.10;0.10;;;;;;;-4.52;92.39;101810.54;1703632;82;21138;-45
2021/04/10 01:49:15;;;;;;;0.17;0.17;;;;;;;-4.53;92.40;101812.84;1703608;84;21129;-44
2021/04/10 01:51:43;;;;;;;0.10;0.10;;;;;;;-4.53;92.43;101808.84;1650312;84;21361;-44
2021/04/10 01:54:11;;;;;;;0.30;0.30;;;;;;;-4.55;92.44;101810.34;1703193;84;21703;-45
2021/04/10 01:56:42;;;;;;;0.10;0.10;;;;;;;-4.55;92.41;101818.81;1651325;82;21181;-45
2021/04/10 01:59:14;;;;;;;0.10;0.10;;;;;;;-4.56;92.43;101819.81;1672687;84;21142;-44
2021/04/10 02:01:51;;;;;;;0.80;0.80;;;;;;;-4.58;92.48;101816.45;1693318;82;21426;-44
2021/04/10 02:04:18;;;;;;;0.20;0.20;;;;;;;-4.60;92.52;101821.08;1722245;82;21441;-45
2021/04/10 02:06:48;;;;;;;0.25;0.25;;;;;;;-4.61;92.54;101828.75;1703278;82;21117;-44
2021/04/10 02:09:17;;;;;;;0.20;0.20;;;;;;;-4.63;92.55;101824.88;1703812;82;21577;-45
2021/04/10 02:11:48;;;;;;;0.23;0.23;;;;;;;-4.65;92.58;101826.02;1672052;84;21118;-45
2021/04/10 02:14:19;;;;;;;1.57;0.70;;;;;;;-4.66;92.68;101828.35;1702713;82;21168;-45
2021/04/10 02:16:49;;;;;;;0.35;0.35;;;;;;;-4.67;92.73;101830.66;1637915;84;21153;-45
2021/04/10 02:19:18;;;;;;;0.80;0.80;;;;;;;-4.69;92.77;101824.65;1703090;82;21639;-45
2021/04/10 02:21:47;;;;;;;0.10;0.10;;;;;;;-4.69;92.84;101828.65;1702098;84;21572;-45
2021/04/10 02:24:15;;;;;;;0.80;0.75;;;;;;;-4.70;92.90;101828.28;1703115;82;21690;-45
2021/04/10 02:26:45;;;;;;;0.30;0.30;;;;;;;-4.69;92.91;101821.98;1703201;82;21133;-45
2021/04/10 02:29:16;;;;;;;1.27;0.42;;;;;;;-4.71;92.97;101824.78;1724910;82;21110;-45
2021/04/10 02:31:51;;;;;;;0.10;0.10;;;;;;;-4.70;93.02;101819.78;1700330;82;21715;-45
2021/04/10 02:34:24;;;;;;;0.65;0.65;;;;;;;-4.68;93.04;101819.65;1674315;84;21218;-45
2021/04/10 02:36:53;;;;;;;0.10;0.10;;;;;;;-4.69;93.07;101825.48;1695084;82;21115;-45
2021/04/10 02:39:22;;;;;;;0.10;0.10;;;;;;;-4.69;93.12;101822.81;1732210;82;21129;-45
2021/04/10 02:41:51;;;;;;;0.15;0.15;;;;;;;-4.69;93.12;101828.65;1701726;82;21129;-45
2021/04/10 02:44:25;;;;;;;0.25;0.25;;;;;;;-4.69;93.12;101833.98;1725574;82;21130;-45
2021/04/10 02:46:57;;;;;;;0.10;0.10;;;;;;;-4.72;93.05;101831.59;1732293;82;21125;-45
2021/04/10 02:49:29;;;;;;;0.33;0.33;;;;;;;-4.78;92.90;101832.52;1732288;82;21105;-45
2021/04/10 02:52:00;;;;;;;0.20;0.20;;;;;;;-4.86;92.70;101833.73;1701429;82;21453;-45
2021/04/10 02:54:31;;;;;;;0.20;0.20;;;;;;;-4.93;92.76;101832.63;1701274;82;21102;-45
2021/04/10 02:57:13;;;;;;;0.10;0.10;;;;;;;-4.96;92.94;101830.27;1676631;82;21244;-45
2021/04/10 02:59:44;;;;;;;0.10;0.10;;;;;;;-4.97;93.06;101832.56;1732192;82;21154;-45
2021/04/10 03:02:12;;;;;;;2.30;1.47;;;;;;;-4.98;93.14;101837.05;1703482;82;21170;-46
2021/04/10 03:04:40;;;;;;;0.47;0.47;;;;;;;-5.01;93.23;101840.02;1673464;84;21465;-45
2021/04/10 03:07:09;;;;;;;0.10;0.10;;;;;;;-5.01;93.29;101831.19;1703278;84;21138;-45
2021/04/10 03:09:39;;;;;;;0.10;0.10;;;;;;;-5.02;93.39;101843.68;1673719;84;21611;-45
2021/04/10 03:12:12;;;;;;;0.10;0.10;;;;;;;-5.02;93.45;101843.68;1702944;84;21186;-45
2021/04/10 03:14:39;;;;;;;0.00;0.00;;;;;;;-5.02;93.49;101842.81;1703236;83;21541;-45
2021/04/10 03:17:14;;;;;;;0.33;0.33;;;;;;;-5.02;93.68;101840.15;1698089;82;21130;-45
2021/04/10 03:19:43;;;;;;;0.47;0.45;;;;;;;-5.00;93.83;101847.02;1732157;82;21133;-45
2021/04/10 03:22:14;;;;;;;0.53;0.53;;;;;;;-4.97;93.98;101845.89;1701117;82;21213;-45
2021/04/10 03:24:42;;;;;;;0.30;0.30;;;;;;;-4.92;94.00;101840.13;1732211;82;21611;-45
2021/04/10 03:27:11;;;;;;;0.10;0.10;;;;;;;-4.90;94.01;101844.34;1705265;82;21603;-45
2021/04/10 03:29:38;;;;;;;0.13;0.13;;;;;;;-4.87;94.02;101852.07;1711256;82;21414;-45
2021/04/10 03:32:07;;;;;;;0.33;0.30;;;;;;;-4.85;94.05;101846.08;1703042;82;21110;-44
2021/04/10 03:34:36;;;;;;;0.05;0.05;;;;;;;-4.83;94.06;101842.78;1673663;84;21113;-45
2021/04/10 03:37:06;;;;;;;0.20;0.20;;;;;;;-4.81;94.03;101841.31;1713854;82;21545;-45
2021/04/10 03:39:34;;;;;;;0.00;0.00;;;;;;;-4.80;94.03;101845.18;1732129;82;21444;-46
2021/04/10 03:42:08;;;;;;;0.20;0.20;;;;;;;-4.79;94.03;101840.68;1702286;82;21146;-45
2021/04/10 03:44:35;;;;;;;0.00;0.00;;;;;;;-4.76;94.10;101843.05;1685555;84;21151;-45
2021/04/10 03:47:12;;;;;;;0.10;0.10;;;;;;;-4.71;94.18;101847.95;1703088;82;21213;-45
2021/04/10 03:49:40;;;;;;;0.13;0.13;;;;;;;-4.67;94.25;101843.98;1725473;82;21469;-45
2021/04/10 03:52:08;;;;;;;0.10;0.10;;;;;;;-4.62;94.31;101848.42;1732374;82;21144;-45
2021/04/10 03:54:36;;;;;;;0.10;0.10;;;;;;;-4.57;94.48;101840.32;1732156;82;21161;-45
2021/04/10 03:57:05;;;;;;;1.02;0.35;;;;;;;-4.48;94.62;101849.26;1719250;82;21110;-45
2021/04/10 03:59:33;;;;;;;0.95;0.95;;;;;;;-4.41;94.70;101845.02;1695039;82;21185;-46
2021/04/10 04:02:04;;;;;;;0.13;0.13;;;;;;;-4.32;94.75;101851.32;1693280;82;21580;-46
2021/04/10 04:04:33;;;;;;;0.90;0.75;;;;;;;-4.23;94.83;101856.25;1700660;82;21133;-46
2021/04/10 04:07:01;;;;;;;0.10;0.10;;;;;;;-4.14;94.89;101852.20;1701195;82;21133;-45
2021/04/10 04:09:30;;;;;;;0.28;0.28;;;;;;;-4.04;95.02;101849.48;1703291;82;21145;-45
2021/04/10 04:11:57;;;;;;;0.10;0.10;;;;;;;-3.93;95.05;101847.95;1702939;84;21084;-45
2021/04/10 04:14:24;;;;;;;0.10;0.10;;;;;;;-3.82;95.06;101854.90;1689246;83;21142;-45
2021/04/10 04:16:52;;;;;;;0.42;0.42;;;;;;;-3.71;95.07;101857.37;1753261;81;21114;-45
2021/04/10 04:19:19;;;;;;;2.35;2.15;;;;;;;-3.60;95.04;101859.47;1758998;81;21143;-45
2021/04/10 04:21:47;;;;;;;0.90;0.90;;;;;;;-3.49;95.15;101852.08;1759419;81;21155;-46
2021/04/10 04:24:14;;;;;;;1.40;0.85;;;;;;;-3.34;95.39;101867.55;1759086;81;21154;-46
2021/04/10 04:26:42;;;;;;;0.15;0.15;;;;;;;-3.21;95.56;101857.33;1729104;82;21166;-47
2021/04/10 04:29:09;;;;;;;0.13;0.13;;;;;;;-3.07;95.66;101863.94;1732399;81;21510;-46
2021/04/10 04:31:37;;;;;;;0.10;0.10;;;;;;;-2.92;95.79;101864.22;1731004;81;21146;-46
2021/04/10 04:34:05;;;;;;;0.10;0.10;;;;;;;-2.78;95.78;101860.15;1743926;81;21664;-46
2021/04/10 04:36:32;;;;;;;2.12;0.72;;;;;;;-2.66;95.77;101862.40;1718127;83;21162;-46
2021/04/10 04:39:00;;;;;;;0.10;0.10;;;;;;;-2.51;95.82;101853.79;1724567;81;21137;-46
2021/04/10 04:41:27;;;;;;;0.20;0.20;;;;;;;-2.37;95.88;101859.89;1710626;83;21173;-46
2021/04/10 04:43:55;;;;;;;0.15;0.15;;;;;;;-2.20;96.01;101858.97;1710495;82;21516;-46
2021/04/10 04:46:23;;;;;;;0.42;0.42;;;;;;;-2.02;96.15;101862.88;1713737;81;21170;-46
2021/04/10 04:48:50;;;;;;;0.82;0.47;;;;;;;-1.84;96.08;101865.44;1698259;83;21122;-46
2021/04/10 04:51:19;;;;;;;0.20;0.20;;;;;;;-1.70;95.73;101863.16;1738534;82;21137;-47
2021/04/10 04:53:47;;;;;;;0.10;0.10;;;;;;;-1.56;95.60;101862.02;1702723;82;21112;-46
2021/04/10 04:56:14;;;;;;;0.50;0.50;;;;;;;-1.40;95.56;101867.05;1716756;83;21176;-46
2021/04/10 04:58:42;;;;;;;0.30;0.30;;;;;;;-1.23;95.48;101859.86;1760211;79;21904;-46
2021/04/10 05:01:09;;;;;;;5.83;0.70;;;;;;;-1.08;95.34;101862.20;1771427;79;21137;-46
2021/04/10 05:03:37;;;;;;;0.10;0.10;;;;;;;-0.91;95.40;101862.53;1754604;81;21189;-46
2021/04/10 05:06:05;;;;;;;0.57;0.57;;;;;;;-0.70;95.54;101866.52;1737460;82;21133;-46
2021/04/10 05:08:32;;;;;;;0.20;0.20;;;;;;;-0.53;95.32;101859.28;1729170;82;21134;-47
2021/04/10 05:11:01;;;;;;;0.15;0.15;;;;;;;-0.35;95.13;101863.08;1704057;82;21162;-46
2021/04/10 05:13:28;;;;;;;0.25;0.25;;;;;;;-0.16;95.19;101864.53;1728669;82;21150;-46
2021/04/10 05:15:57;;;;;;;0.47;0.33;;;;;;;0.04;95.02;101860.92;1723686;81;21454;-46
2021/04/10 05:18:25;;;;;;;2.00;1.57;;;;;;;0.22;94.85;101857.45;1722247;81;21162;-46
2021/04/10 05:20:52;;;;;;;0.33;0.33;;;;;;;0.42;94.83;101856.01;1703965;84;21102;-46
2021/04/10 05:23:21;;;;;;;0.30;0.30;;;;;;;0.63;94.57;101857.20;1755660;80;21129;-46
2021/04/10 05:25:49;;;;;;;1.15;1.05;;;;;;;0.86;94.09;101860.70;1757214;80;21173;-46
2021/04/10 05:28:18;;;;;;;0.85;0.85;;;;;;;1.07;93.85;101853.30;1705470;83;21184;-46
2021/04/10 05:30:47;;;;;;;0.40;0.40;;;;;;;1.28;93.37;101857.98;1703600;84;21148;-47
2021/04/10 05:33:16;;;;;;;0.90;0.90;;;;;;;1.47;92.97;101852.58;1763233;80;21129;-47
2021/04/10 05:35:43;;;;;;;2.50;0.60;;;;;;;1.69;92.40;101852.16;1786240;80;21126;-47
2021/04/10 05:38:11;;;;;;;1.47;1.37;;;;;;;1.91;91.74;101858.47;1786044;80;21516;-47
2021/04/10 05:40:38;;;;;;;1.10;1.05;;;;;;;2.15;91.34;101856.47;1786259;80;21150;-47
2021/04/10 05:43:06;;;;;;;0.72;0.72;;;;;;;2.37;90.59;101857.34;1776547;80;21501;-47
2021/04/10 05:45:33;;;;;;;2.27;1.17;;;;;;;2.59;90.00;101863.08;1721543;83;21520;-46
2021/04/10 05:48:01;;;;;;;1.40;1.00;;;;;;;2.81;89.87;101861.74;1691586;83;21131;-47
2021/04/10 05:50:28;;;;;;;0.65;0.65;;;;;;;3.03;89.43;101858.52;1721754;83;21164;-47
2021/04/10 05:52:56;;;;;;;0.40;0.40;;;;;;;3.27;88.85;101860.48;1724142;82;21577;-47
2021/04/10 05:55:23;;;;;;;3.50;2.72;;;;;;;3.53;88.32;101861.16;1733107;82;21122;-46
2021/04/10 05:57:51;;;;;;;1.07;1.07;;;;;;;3.80;87.20;101857.57;1722411;82;21121;-47
2021/04/10 06:00:20;;;;;;;1.92;1.35;;;;;;;4.08;86.14;101858.04;1755643;80;21137;-47
2021/04/10 06:02:52;;;;;;;2.60;1.92;;;;;;;4.35;85.10;101858.11;1755770;80;21141;-47
2021/04/10 06:05:20;;;;;;;2.85;2.42;;;;;;;4.61;84.31;101856.83;1755359;81;21163;-47
2021/04/10 06:07:48;;;;;;;3.35;2.62;;;;;;;4.89;83.09;101859.88;1766152;80;21162;-47
2021/04/10 06:10:17;;;;;;;5.28;1.12;;;;;;;5.13;81.89;101853.85;1786335;80;21133;-47
2021/04/10 06:12:44;;;;;;;1.55;0.95;;;;;;;5.37;80.59;101858.33;1785028;80;21603;-47
2021/04/10 06:15:13;;;;;;;2.42;1.75;;;;;;;5.58;78.77;101858.06;1786552;79;21150;-47
2021/04/10 06:17:40;;;;;;;1.95;1.62;;;;;;;5.79;77.73;101856.98;1759883;80;21604;-47
2021/04/10 06:20:09;;;;;;;6.42;2.35;;;;;;;6.04;76.65;101854.95;1759756;81;21620;-47
2021/04/10 06:22:38;;;;;;;4.25;2.77;;;;;;;6.29;75.00;101860.48;1759815;80;21137;-47
2021/04/10 06:25:06;;;;;;;2.60;2.40;;;;;;;6.56;73.81;101863.05;1759702;80;21473;-47
2021/04/10 06:27:35;;;;;;;1.80;1.65;;;;;;;6.78;72.37;101854.03;1759588;80;21564;-46
2021/04/10 06:30:04;;;;;;;1.20;1.10;;;;;;;7.01;71.22;101856.98;1778839;80;21172;-46
2021/04/10 06:32:32;;;;;;;2.17;1.42;;;;;;;7.21;69.52;101859.53;1790419;80;21137;-46
2021/04/10 06:35:00;;;;;;;1.12;1.00;;;;;;;7.44;67.84;101860.28;1790684;80;21137;-46
2021/04/10 06:37:28;;;;;;;2.77;2.65;;;;;;;7.66;65.80;101852.50;1788303;80;21607;-46
2021/04/10 06:39:55;;;;;;;1.98;1.37;;;;;;;7.88;64.56;101854.25;1790389;80;21134;-46
2021/04/10 06:42:23;;;;;;;3.70;2.42;;;;;;;8.11;63.79;101854.94;1790551;80;21122;-47
2021/04/10 06:44:51;;;;;;;2.77;1.27;;;;;;;8.33;62.56;101852.56;1744420;81;21457;-46
2021/04/10 06:47:21;;;;;;;2.15;1.15;;;;;;;8.54;61.43;101850.41;1763443;80;21165;-46
2021/04/10 06:49:51;;;;;;;1.70;0.93;;;;;;;8.70;60.77;101853.82;1731375;81;21174;-47
2021/04/10 06:52:20;;;;;;;0.60;0.60;;;;;;;8.90;59.45;101856.27;1711191;81;21552;-46
2021/04/10 06:55:09;;;;;;;0.80;0.80;;;;;;;9.11;59.06;101851.31;1724428;81;21516;-44
2021/04/10 06:58:01;;;;;;;0.42;0.42;;;;;;;9.25;57.91;101848.67;1707972;83;21186;-44
2021/04/10 07:00:29;;;;;;;1.17;1.05;;;;;;;9.41;56.53;101847.94;1717150;83;21446;-44
2021/04/10 07:02:58;;;;;;;1.77;1.37;;;;;;;9.61;54.74;101852.20;1720485;81;21146;-44
2021/04/10 07:05:26;;;;;;;0.98;0.88;;;;;;;9.73;53.89;101850.30;1697759;81;21146;-45
2021/04/10 07:07:54;;;;;;;0.80;0.80;;;;;;;9.88;54.05;101853.34;1697607;83;21556;-44
2021/04/10 07:10:23;;;;;;;4.35;1.60;;;;;;;10.06;52.84;101856.48;1714243;83;21141;-45
2021/04/10 07:12:51;;;;;;;2.35;1.47;;;;;;;10.24;53.32;101854.09;1710859;82;21172;-45
2021/04/10 07:15:19;;;;;;;1.45;1.35;;;;;;;10.45;51.55;101858.62;1720142;81;21162;-45
2021/04/10 07:17:52;;;;;;;1.25;1.15;;;;;;;10.62;49.77;101858.13;1752005;81;21219;-45
2021/04/10 07:20:31;;;;;;;1.85;0.98;;;;;;;10.78;47.86;101861.98;1731694;81;21159;-45
2021/04/10 07:23:05;;;;;;;0.28;0.28;;;;;;;10.93;47.99;101855.95;1724930;81;21174;-45
2021/04/10 07:25:34;;;;;;;0.98;0.68;;;;;;;11.04;47.47;101856.39;1711909;82;21097;-45
2021/04/10 07:28:23;;;;;;;1.52;1.37;;;;;;;11.13;48.27;101857.64;1708108;82;21137;-45
2021/04/10 07:31:13;;;;;;;0.62;0.62;;;;;;;11.24;48.11;101854.52;1707736;83;21134;-45
2021/04/10 07:33:58;;;;;;;1.70;0.90;;;;;;;11.31;47.47;101855.18;1724934;81;21241;-45
2021/04/10 07:36:26;;;;;;;1.87;1.00;;;;;;;11.51;45.40;101861.50;1726025;83;21143;-45
2021/04/10 07:39:00;;;;;;;0.53;0.53;;;;;;;11.69;44.42;101851.34;1730763;82;21105;-45
2021/04/10 07:41:27;;;;;;;0.37;0.37;;;;;;;11.87;42.37;101849.73;1756157;81;21118;-45
2021/04/10 07:43:55;;;;;;;0.85;0.82;;;;;;;12.00;42.49;101850.70;1710755;82;21141;-45
2021/04/10 07:46:25;;;;;;;3.58;1.40;;;;;;;12.09;43.32;101857.09;1696971;81;21615;-45
2021/04/10 07:49:02;;;;;;;2.02;1.02;;;;;;;12.19;42.00;101844.89;1708149;82;21666;-45
2021/04/10 07:51:54;;;;;;;1.17;1.07;;;;;;;12.34;41.72;101839.60;1856678;76;21948;-45
2021/04/10 07:54:38;;;;;;;0.70;0.70;;;;;;;12.35;43.07;101841.25;1822354;78;21141;-45
2021/04/10 07:57:08;;;;;;;2.37;1.45;;;;;;;12.38;42.98;101844.83;1820968;78;21227;-45
2021/04/10 07:59:53;;;;;;;1.92;1.47;;;;;;;12.45;41.80;101844.64;1820760;78;21157;-45
2021/04/10 08:02:22;;;;;;;2.55;0.75;;;;;;;12.54;41.30;101842.28;1795914;78;21090;-45
2021/04/10 08:05:00;;;;;;;1.30;0.88;;;;;;;12.62;42.35;101841.80;1801812;78;21129;-46
2021/04/10 08:07:31;;;;;;;0.65;0.65;;;;;;;12.70;42.14;101839.95;1790505;78;21078;-46
2021/04/10 08:10:07;;;;;;;2.83;1.55;;;;;;;12.82;42.15;101834.31;1790529;78;21568;-46
2021/04/10 08:12:37;;;;;;;0.42;0.40;;;;;;;12.83;39.56;101834.06;1790390;78;21134;-46
2021/04/10 08:15:08;;;;;;;0.45;0.45;;;;;;;12.78;38.22;101839.47;1789979;80;21580;-45
2021/04/10 08:17:42;;;;;;;1.87;1.12;;;;;;;12.70;39.05;101824.87;1819159;78;21157;-46
2021/04/10 08:20:26;;;;;;;0.10;0.10;;;;;;;12.76;39.42;101828.48;1814496;78;21544;-46
2021/04/10 08:23:16;;;;;;;2.45;1.05;;;;;;;12.83;38.49;101821.72;1805661;78;21148;-46
2021/04/10 08:25:44;;;;;;;0.30;0.30;;;;;;;13.03;36.70;101827.91;1780148;80;21473;-46
2021/04/10 08:28:13;;;;;;;0.50;0.40;;;;;;;13.18;33.07;101814.85;1790045;80;21133;-42
2021/04/10 08:30:43;;;;;;;0.70;0.37;;;;;;;13.22;33.47;101818.70;1734598;80;21485;-42
2021/04/10 08:33:10;;;;;;;0.53;0.50;;;;;;;13.19;34.34;101819.23;1789376;78;21114;-42
2021/04/10 08:35:38;;;;;;;0.78;0.78;;;;;;;13.15;33.99;101816.73;1783324;80;21118;-42
2021/04/10 08:38:06;;;;;;;0.53;0.53;;;;;;;13.18;35.49;101814.85;1783512;80;21146;-42
2021/04/10 08:40:34;;;;;;;0.47;0.47;;;;;;;13.20;36.40;101807.70;1783204;80;21083;-43
2021/04/10 08:43:02;;;;;;;1.37;0.88;;;;;;;13.20;36.31;101805.78;1783200;80;21564;-43
2021/04/10 08:45:35;;;;;;;0.70;0.28;;;;;;;13.24;35.66;101796.49;1755266;80;21099;-42
2021/04/10 08:48:05;;;;;;;0.35;0.35;;;;;;;13.28;36.83;101794.36;1799239;78;21105;-41
2021/04/10 08:50:36;;;;;;;;;;;;;;;13.29;36.01;101801.49;1818240;78;21129;-43
2021/04/10 08:53:06;;;;;;;0.57;0.57;;;;;;;13.27;34.50;101794.62;1792282;78;20238;-42
2021/04/10 08:55:34;;;;;;;0.60;0.42;;;;;;;13.24;34.17;101802.80;1841118;77;21465;-42
2021/04/10 08:58:20;;;;;;;0.80;0.42;;;;;;;13.09;35.57;101797.21;1845976;77;21079;-43
2021/04/10 09:01:00;;;;;;;1.20;1.07;;;;;;;12.97;34.25;101799.31;1790038;80;21658;-42
2021/04/10 09:03:48;;;;;;;1.45;0.72;;;;;;;12.97;36.36;101788.34;1801398;78;21145;-43
2021/04/10 09:06:34;;;;;;;0.72;0.72;;;;;;;13.01;34.69;101777.13;1794314;77;21138;-43
2021/04/10 09:09:17;;;;;;;1.60;0.75;;;;;;;13.07;32.87;101787.04;1790537;78;21165;-43
2021/04/10 09:11:50;;;;;;;0.50;0.50;;;;;;;13.08;32.85;101785.94;1810590;78;21141;-43
2021/04/10 09:14:45;;;;;;;1.65;1.07;;;;;;;13.12;35.22;101785.70;1777102;80;21635;-43
2021/04/10 09:17:14;;;;;;;1.05;1.00;;;;;;;13.15;35.19;101779.67;1801267;78;21105;-43
2021/04/10 09:19:42;;;;;;;0.90;0.90;;;;;;;13.22;34.33;101781.65;1812873;77;21513;-42
2021/04/10 09:22:16;;;;;;;1.05;0.42;;;;;;;13.29;35.58;101771.85;1821080;77;21489;-43
2021/04/10 09:24:47;;;;;;;1.10;1.00;;;;;;;13.32;35.77;101773.50;1815282;77;21125;-45
2021/04/10 09:27:25;;;;;;;0.42;0.42;;;;;;;13.39;34.48;101763.67;1792732;78;21132;-43
2021/04/10 09:30:04;;;;;;;0.25;0.25;;;;;;;13.38;32.87;101762.55;1803030;77;21136;-43
2021/04/10 09:32:38;;;;;;;4.85;1.60;;;;;;;13.46;32.55;101766.19;1789339;80;21544;-43
2021/04/10 09:35:16;;;;;;;0.45;0.45;;;;;;;13.60;30.64;101764.61;1804816;78;21142;-42
2021/04/10 09:37:46;;;;;;;0.33;0.20;;;;;;;13.62;32.11;101763.77;1774133;80;21568;-43
2021/04/10 09:40:21;;;;;;;;;;;;;;;13.58;33.21;101760.48;1798719;77;21460;-42
2021/04/10 09:43:05;;;;;;;0.60;0.60;;;;;;;13.56;33.59;101764.86;1820891;78;26505;-43
2021/04/10 09:45:37;;;;;;;0.17;0.17;;;;;;;13.59;34.50;101759.37;1812308;78;21089;-44
2021/04/10 09:48:12;;;;;;;0.60;0.42;;;;;;;13.64;33.84;101768.45;1820916;78;21532;-43
2021/04/10 09:50:52;;;;;;;0.50;0.47;;;;;;;13.68;33.07;101759.97;1789127;80;21417;-43
2021/04/10 09:53:23;;;;;;;0.47;0.47;;;;;;;13.68;32.49;101753.10;1788289;77;21193;-42
2021/04/10 09:56:02;;;;;;;0.30;0.30;;;;;;;13.73;29.95;101757.23;1811224;78;21157;-43
2021/04/10 09:58:48;;;;;;;0.40;0.40;;;;;;;13.70;31.68;101755.59;1809540;78;21099;-44
2021/04/10 10:01:20;;;;;;;;;;;;;;;13.69;32.93;101749.25;1824239;78;21133;-43
2021/04/10 10:03:49;;;;;;;0.25;0.25;;;;;;;13.66;30.87;101744.85;1789873;78;20282;-43
2021/04/10 10:06:20;;;;;;;0.55;0.30;;;;;;;13.69;32.67;101743.75;1821625;78;21128;-43
2021/04/10 10:08:48;;;;;;;1.37;0.70;;;;;;;13.73;33.08;101750.38;1817469;78;21167;-43
2021/04/10 10:11:16;;;;;;;0.35;0.35;;;;;;;13.74;33.58;101741.02;1819745;78;21141;-47
2021/04/10 10:13:45;;;;;;;1.87;0.88;;;;;;;13.72;31.83;101745.98;1798909;77;21156;-44
2021/04/10 10:16:28;;;;;;;3.20;1.27;;;;;;;13.69;34.06;101754.74;1806157;78;21505;-44
2021/04/10 10:19:02;;;;;;;3.87;1.22;;;;;;;13.54;36.18;101743.70;1738952;80;21154;-43
2021/04/10 10:21:31;;;;;;;0.98;0.78;;;;;;;13.44;36.66;101746.40;1780979;80;21041;-41
2021/04/10 10:24:00;;;;;;;0.72;0.72;;;;;;;13.38;37.78;101737.84;1747781;81;21110;-44
2021/04/10 10:26:36;;;;;;;1.87;0.85;;;;;;;13.34;38.20;101733.44;1812855;79;21102;-45
2021/04/10 10:29:08;;;;;;;0.40;0.40;;;;;;;13.36;38.47;101726.33;1781502;80;21108;-45
2021/04/10 10:31:55;;;;;;;1.15;1.07;;;;;;;13.26;39.04;101732.55;1767524;80;21129;-45
2021/04/10 10:34:24;;;;;;;1.32;1.22;;;;;;;13.20;38.63;101724.00;1739480;80;21570;-46
2021/04/10 10:36:54;;;;;;;2.05;1.27;;;;;;;13.17;38.59;101730.84;1724921;83;21188;-45
2021/04/10 10:39:29;;;;;;;1.67;0.90;;;;;;;12.98;39.49;101733.73;1772015;79;21576;-46
2021/04/10 10:42:00;;;;;;;0.40;0.40;;;;;;;12.90;39.51;101725.45;1741550;81;21468;-46
2021/04/10 10:44:28;;;;;;;1.77;1.07;;;;;;;12.90;39.70;101724.09;1746533;81;21540;-45
2021/04/10 10:47:02;;;;;;;0.88;0.88;;;;;;;12.87;38.17;101721.33;1731594;82;21146;-45
2021/04/10 10:49:30;;;;;;;1.52;1.25;;;;;;;12.58;37.33;101721.37;1782062;80;21560;-45
2021/04/10 10:51:59;;;;;;;0.68;0.20;;;;;;;12.22;38.34;101730.67;1778521;80;21092;-45
2021/04/10 10:54:35;;;;;;;2.12;1.52;;;;;;;12.18;40.04;101726.78;1747573;80;21638;-45
2021/04/10 10:57:11;;;;;;;0.72;0.53;;;;;;;12.31;39.86;101720.87;1747296;82;21476;-45
2021/04/10 10:59:40;;;;;;;2.08;0.88;;;;;;;12.41;38.21;101720.98;1734546;80;21541;-45
2021/04/10 11:02:14;;;;;;;2.17;1.12;;;;;;;12.52;39.42;101718.33;1753001;81;21118;-45
2021/04/10 11:04:42;;;;;;;;;;;;;;;12.70;39.50;101723.39;1704349;82;21118;-45
2021/04/10 11:07:11;;;;;;;0.75;0.75;;;;;;;12.84;39.42;101713.63;1754828;80;20449;-46
2021/04/10 11:09:41;;;;;;;1.25;0.33;;;;;;;12.87;39.62;101704.05;1694799;82;21611;-46
2021/04/10 11:12:15;;;;;;;1.37;1.15;;;;;;;12.87;38.52;101706.23;1754130;81;21122;-45
2021/04/10 11:14:45;;;;;;;0.80;0.60;;;;;;;12.80;39.33;101702.89;1746367;81;21140;-46
2021/04/10 11:17:28;;;;;;;0.75;0.75;;;;;;;12.77;38.23;101704.80;1753141;80;21146;-46
2021/04/10 11:19:58;;;;;;;1.02;0.93;;;;;;;12.71;38.23;101697.64;1748695;80;21112;-46
2021/04/10 11:22:26;;;;;;;2.70;1.10;;;;;;;12.76;39.17;101694.94;1719661;81;21466;-45
2021/04/10 11:24:56;;;;;;;0.98;0.85;;;;;;;12.82;39.07;101692.48;1766859;80;21130;-45
2021/04/10 11:27:25;;;;;;;1.07;0.57;;;;;;;12.79;39.41;101687.54;1714809;82;21139;-46
2021/04/10 11:30:03;;;;;;;1.32;0.65;;;;;;;12.76;39.38;101688.08;1762011;79;21111;-45
2021/04/10 11:35:25;;;;;;;1.02;0.47;;;;;;;12.99;38.21;101681.91;1833041;76;22640;-45
2021/04/10 11:37:54;;;;;;;0.45;0.45;;;;;;;12.99;37.73;101682.73;1786086;80;21110;-46
2021/04/10 11:40:31;;;;;;;0.40;0.40;;;;;;;13.05;37.67;101689.06;1801676;78;21157;-45
2021/04/10 11:43:07;;;;;;;1.27;0.85;;;;;;;13.13;37.72;101681.72;1786051;80;21166;-46
2021/04/10 11:45:41;;;;;;;0.57;0.57;;;;;;;13.24;38.24;101677.91;1742210;81;21145;-45
2021/04/10 11:48:22;;;;;;;1.02;0.60;;;;;;;13.40;37.70;101676.63;1781529;79;21124;-45
2021/04/10 11:50:58;;;;;;;0.95;0.70;;;;;;;13.45;36.95;101676.65;1750919;81;21166;-45